createdAt,value
2023-10-15T00:00:21.053Z,85.38
2023-10-15T00:02:52.703Z,85.84
2023-10-15T00:05:27.468Z,86.47
2023-10-15T00:07:55.259Z,86.08
2023-10-15T00:10:24.257Z,86.41
2023-10-15T00:12:52.888Z,86.57
2023-10-15T00:15:21.346Z,86.39
2023-10-15T00:17:49.593Z,85.40
2023-10-15T00:20:19.504Z,85.45
2023-10-15T00:22:47.639Z,86.10
2023-10-15T00:25:15.954Z,86.27
2023-10-15T00:27:43.883Z,85.74
2023-10-15T00:30:14.540Z,85.95
2023-10-15T00:32:44.536Z,85.05
2023-10-15T00:35:13.093Z,84.87
2023-10-15T00:37:44.675Z,85.05
2023-10-15T00:40:17.893Z,84.74
2023-10-15T00:42:48.636Z,85.13
2023-10-15T00:45:17.065Z,85.35
2023-10-15T00:48:06.860Z,85.28
2023-10-15T00:50:45.584Z,85.42
2023-10-15T00:53:25.486Z,85.37
2023-10-15T00:55:53.580Z,84.49
2023-10-15T00:58:33.118Z,86.42
2023-10-15T01:01:20.105Z,86.78
2023-10-15T01:03:57.769Z,85.76
2023-10-15T01:06:36.222Z,87.21
2023-10-15T01:09:12.330Z,86.34
2023-10-15T01:11:46.361Z,87.04
2023-10-15T01:14:14.876Z,86.99
2023-10-15T01:16:42.380Z,86.57
2023-10-15T01:19:12.645Z,86.63
2023-10-15T01:22:04.349Z,87.34
2023-10-15T01:24:39.285Z,87.37
2023-10-15T01:27:08.415Z,87.50
2023-10-15T01:29:45.393Z,87.38
2023-10-15T01:32:32.856Z,87.88
2023-10-15T01:35:03.056Z,88.03
2023-10-15T01:37:30.286Z,87.07
2023-10-15T01:40:23.292Z,88.18
2023-10-15T01:42:55.544Z,88.36
2023-10-15T01:45:39.625Z,88.10
2023-10-15T01:48:14.289Z,88.00
2023-10-15T01:51:07.117Z,87.65
2023-10-15T01:53:40.712Z,87.32
2023-10-15T01:56:08.463Z,86.38
2023-10-15T01:58:35.602Z,86.70
2023-10-15T02:01:33.238Z,85.82
2023-10-15T02:04:00.661Z,86.84
2023-10-15T02:06:27.893Z,87.49
2023-10-15T02:08:56.696Z,88.53
2023-10-15T02:11:23.887Z,87.88
2023-10-15T02:13:51.832Z,89.19
2023-10-15T02:16:26.791Z,89.44
2023-10-15T02:18:53.911Z,89.04
2023-10-15T02:21:21.022Z,88.28
2023-10-15T02:23:52.275Z,87.97
2023-10-15T02:26:20.347Z,87.98
2023-10-15T02:28:49.042Z,87.83
2023-10-15T02:31:21.425Z,87.45
2023-10-15T02:33:48.891Z,86.95
2023-10-15T02:36:19.013Z,86.53
2023-10-15T02:38:58.367Z,87.40
2023-10-15T02:41:42.041Z,86.71
2023-10-15T02:44:17.262Z,86.48
2023-10-15T02:46:51.360Z,86.76
2023-10-15T02:49:18.687Z,87.35
2023-10-15T02:51:47.232Z,87.49
2023-10-15T02:54:20.669Z,88.19
2023-10-15T02:56:47.791Z,88.28
2023-10-15T02:59:18.570Z,88.08
2023-10-15T03:01:48.473Z,87.97
2023-10-15T03:04:34.355Z,87.51
2023-10-15T03:07:21.176Z,87.04
2023-10-15T03:09:53.237Z,87.37
2023-10-15T03:12:20.421Z,87.93
2023-10-15T03:14:47.310Z,87.64
2023-10-15T03:17:26.297Z,88.53
2023-10-15T03:19:56.334Z,88.27
2023-10-15T03:22:30.251Z,89.18
2023-10-15T03:25:00.836Z,88.89
2023-10-15T03:27:28.865Z,89.73
2023-10-15T03:29:58.955Z,88.40
2023-10-15T03:32:33.227Z,89.65
2023-10-15T03:35:07.579Z,88.83
2023-10-15T03:37:39.687Z,89.54
2023-10-15T03:40:15.069Z,88.46
2023-10-15T03:42:42.388Z,89.02
2023-10-15T03:45:11.301Z,88.96
2023-10-15T03:47:48.574Z,89.19
2023-10-15T03:50:16.553Z,89.55
2023-10-15T03:52:45.755Z,89.23
2023-10-15T03:55:13.724Z,89.50
2023-10-15T03:57:40.754Z,88.53
2023-10-15T04:00:17.890Z,88.15
2023-10-15T04:03:02.526Z,87.87
2023-10-15T04:05:31.375Z,88.29
2023-10-15T04:07:58.301Z,87.78
2023-10-15T04:10:25.834Z,88.85
2023-10-15T04:12:53.510Z,87.96
2023-10-15T04:15:23.111Z,88.31
2023-10-15T04:17:50.327Z,88.08
2023-10-15T04:20:17.804Z,87.87
2023-10-15T04:22:53.313Z,88.12
2023-10-15T04:25:27.374Z,87.30
2023-10-15T04:27:55.755Z,87.55
2023-10-15T04:30:24.704Z,87.37
2023-10-15T04:32:52.025Z,87.72
2023-10-15T04:35:20.457Z,88.13
2023-10-15T04:37:50.423Z,87.59
2023-10-15T04:40:24.211Z,87.02
2023-10-15T04:42:52.901Z,86.86
2023-10-15T04:45:36.989Z,87.89
2023-10-15T04:48:09.034Z,86.83
2023-10-15T04:50:37.657Z,87.57
2023-10-15T04:53:14.723Z,88.22
2023-10-15T04:55:42.799Z,87.95
2023-10-15T04:58:10.786Z,87.94
2023-10-15T05:00:49.156Z,88.91
2023-10-15T05:03:17.765Z,88.36
2023-10-15T05:05:45.135Z,88.79
2023-10-15T05:08:13.018Z,88.24
2023-10-15T05:10:52.461Z,87.96
2023-10-15T05:13:20.818Z,88.02
2023-10-15T05:15:49.170Z,88.01
2023-10-15T05:18:16.893Z,87.77
2023-10-15T05:20:49.292Z,87.87
2023-10-15T05:23:17.488Z,87.79
2023-10-15T05:25:44.970Z,88.34
2023-10-15T05:28:16.243Z,87.71
2023-10-15T05:30:45.105Z,87.32
2023-10-15T05:33:12.322Z,87.89
2023-10-15T05:35:40.529Z,88.44
2023-10-15T05:38:11.388Z,89.17
2023-10-15T05:40:39.901Z,88.57
2023-10-15T05:43:07.331Z,89.51
2023-10-15T05:45:34.644Z,88.94
2023-10-15T05:48:02.417Z,88.85
2023-10-15T05:50:29.800Z,89.04
2023-10-15T05:52:56.677Z,89.06
2023-10-15T05:55:23.805Z,88.54
2023-10-15T05:57:50.805Z,89.12
2023-10-15T06:00:21.356Z,88.12
2023-10-15T06:02:49.433Z,88.15
2023-10-15T06:05:16.404Z,88.10
2023-10-15T06:07:46.211Z,87.87
2023-10-15T06:10:13.660Z,88.32
2023-10-15T06:12:41.722Z,87.90
2023-10-15T06:15:10.319Z,87.89
2023-10-15T06:17:37.673Z,87.76
2023-10-15T06:20:23.208Z,88.11
2023-10-15T06:22:50.918Z,87.56
2023-10-15T06:25:25.045Z,87.22
2023-10-15T06:27:52.939Z,87.63
2023-10-15T06:30:24.564Z,87.16
2023-10-15T06:32:54.381Z,86.63
2023-10-15T06:35:23.544Z,86.70
2023-10-15T06:37:59.323Z,86.87
2023-10-15T06:40:28.699Z,87.49
2023-10-15T06:43:02.716Z,87.49
2023-10-15T06:45:31.047Z,87.24
2023-10-15T06:47:58.213Z,87.12
2023-10-15T06:50:26.992Z,87.79
2023-10-15T06:52:55.756Z,87.91
2023-10-15T06:55:23.450Z,87.80
2023-10-15T06:57:50.692Z,87.60
2023-10-15T07:00:24.911Z,87.79
2023-10-15T07:02:55.610Z,88.10
2023-10-15T07:05:25.497Z,87.56
2023-10-15T07:07:53.187Z,88.43
2023-10-15T07:10:20.322Z,87.91
2023-10-15T07:12:49.512Z,88.83
2023-10-15T07:15:17.848Z,88.45
2023-10-15T07:17:46.423Z,88.48
2023-10-15T07:20:20.041Z,87.99
2023-10-15T07:22:48.501Z,88.67
2023-10-15T07:25:16.388Z,88.72
2023-10-15T07:27:47.124Z,87.79
2023-10-15T07:30:16.505Z,88.25
2023-10-15T07:32:44.972Z,87.71
2023-10-15T07:35:13.920Z,88.41
2023-10-15T07:37:45.459Z,88.30
2023-10-15T07:40:23.291Z,88.69
2023-10-15T07:42:52.229Z,88.21
2023-10-15T07:45:21.053Z,87.97
2023-10-15T07:47:48.349Z,88.58
2023-10-15T07:50:20.218Z,87.50
2023-10-15T07:52:49.671Z,88.59
2023-10-15T07:55:18.159Z,89.23
2023-10-15T07:57:45.371Z,87.85
2023-10-15T08:00:16.824Z,89.57
2023-10-15T08:02:46.913Z,90.05
2023-10-15T08:05:17.676Z,90.08
2023-10-15T08:07:44.920Z,90.19
2023-10-15T08:10:12.459Z,89.13
2023-10-15T08:12:39.341Z,89.45
2023-10-15T08:15:08.231Z,89.37
2023-10-15T08:17:36.095Z,88.29
2023-10-15T08:20:05.719Z,89.54
2023-10-15T08:22:32.618Z,89.41
2023-10-15T08:24:59.803Z,89.07
2023-10-15T08:27:27.626Z,89.37
2023-10-15T08:29:54.484Z,89.19
2023-10-15T08:32:21.836Z,88.18
2023-10-15T08:34:49.684Z,88.33
2023-10-15T08:37:16.782Z,88.72
2023-10-15T08:39:43.681Z,88.24
2023-10-15T08:42:27.648Z,88.57
2023-10-15T08:44:58.912Z,88.24
2023-10-15T08:47:27.701Z,88.61
2023-10-15T08:49:56.723Z,88.60
2023-10-15T08:52:24.737Z,88.34
2023-10-15T08:54:52.847Z,88.52
2023-10-15T08:57:20.033Z,89.55
2023-10-15T08:59:48.479Z,90.54
2023-10-15T09:02:16.921Z,91.52
2023-10-15T09:04:46.952Z,90.38
2023-10-15T09:07:16.142Z,89.73
2023-10-15T09:09:43.658Z,89.11
2023-10-15T09:12:14.459Z,89.76
2023-10-15T09:14:45.769Z,88.98
2023-10-15T09:17:18.432Z,89.05
2023-10-15T09:19:50.033Z,89.81
2023-10-15T09:22:17.036Z,89.05
2023-10-15T09:24:44.917Z,88.67
2023-10-15T09:27:12.580Z,88.73
2023-10-15T09:29:40.007Z,88.89
2023-10-15T09:32:07.535Z,88.82
2023-10-15T09:34:39.012Z,89.29
2023-10-15T09:37:07.742Z,89.31
2023-10-15T09:39:40.325Z,88.71
2023-10-15T09:42:07.119Z,88.20
2023-10-15T09:44:35.198Z,88.11
2023-10-15T09:47:05.705Z,88.35
2023-10-15T09:49:35.090Z,88.51
2023-10-15T09:52:11.722Z,88.24
2023-10-15T09:54:44.200Z,88.27
2023-10-15T09:57:12.560Z,89.01
2023-10-15T09:59:39.499Z,88.69
2023-10-15T10:02:13.873Z,89.22
2023-10-15T10:04:58.051Z,88.72
2023-10-15T10:08:20.335Z,88.05
2023-10-15T10:11:04.469Z,88.89
2023-10-15T10:14:12.564Z,89.01
2023-10-15T10:16:43.334Z,88.05
2023-10-15T10:19:11.270Z,87.64
2023-10-15T10:21:38.240Z,88.29
2023-10-15T10:24:10.276Z,89.40
2023-10-15T10:26:41.413Z,89.08
2023-10-15T10:29:10.637Z,89.48
2023-10-15T10:31:40.661Z,89.57
2023-10-15T10:34:07.789Z,89.65
2023-10-15T10:36:39.313Z,87.54
2023-10-15T10:39:09.892Z,88.46
2023-10-15T10:41:42.256Z,88.00
2023-10-15T10:44:25.181Z,88.03
2023-10-15T10:46:55.793Z,88.65
2023-10-15T10:49:35.747Z,89.88
2023-10-15T10:52:18.856Z,91.07
2023-10-15T10:54:49.973Z,90.92
2023-10-15T10:57:21.851Z,91.21
2023-10-15T10:59:50.508Z,90.75
2023-10-15T11:02:17.758Z,90.70
2023-10-15T11:04:45.090Z,89.54
2023-10-15T11:07:14.630Z,88.91
2023-10-15T11:09:41.938Z,88.73
2023-10-15T11:12:13.722Z,88.39
2023-10-15T11:14:41.908Z,87.62
2023-10-15T11:17:10.171Z,87.04
2023-10-15T11:19:39.535Z,86.15
2023-10-15T11:22:07.042Z,86.21
2023-10-15T11:24:34.348Z,86.67
2023-10-15T11:27:02.129Z,86.62
2023-10-15T11:29:32.870Z,87.00
2023-10-15T11:32:00.622Z,86.95
2023-10-15T11:34:33.167Z,88.97
2023-10-15T11:37:03.076Z,90.00
2023-10-15T11:39:39.763Z,89.67
2023-10-15T11:42:10.621Z,90.54
2023-10-15T11:44:45.341Z,90.00
2023-10-15T11:47:18.851Z,90.35
2023-10-15T11:49:46.442Z,90.27
2023-10-15T11:52:16.647Z,89.25
2023-10-15T11:54:53.544Z,87.60
2023-10-15T11:57:28.105Z,87.17
2023-10-15T11:59:58.019Z,86.17
2023-10-15T12:02:28.430Z,85.06
2023-10-15T12:04:59.588Z,84.85
2023-10-15T12:07:27.429Z,84.54
2023-10-15T12:09:54.306Z,84.66
2023-10-15T12:12:21.948Z,84.97
2023-10-15T12:14:48.761Z,85.29
2023-10-15T12:17:18.141Z,85.45
2023-10-15T12:19:46.750Z,85.21
2023-10-15T12:22:16.964Z,85.47
2023-10-15T12:24:45.032Z,85.30
2023-10-15T12:27:12.609Z,85.59
2023-10-15T12:29:40.815Z,85.75
2023-10-15T12:32:11.868Z,85.71
2023-10-15T12:34:39.081Z,84.31
2023-10-15T12:37:09.440Z,84.22
2023-10-15T12:39:42.387Z,83.82
2023-10-15T12:42:12.922Z,83.50
2023-10-15T12:44:42.870Z,83.32
2023-10-15T12:47:13.725Z,83.18
2023-10-15T12:49:41.488Z,83.38
2023-10-15T12:52:09.908Z,84.26
2023-10-15T12:54:37.360Z,84.22
2023-10-15T12:57:05.941Z,84.55
2023-10-15T12:59:35.803Z,84.85
2023-10-15T13:02:05.592Z,85.18
2023-10-15T13:04:32.761Z,84.33
2023-10-15T13:06:59.813Z,84.54
2023-10-15T13:09:34.429Z,82.12
2023-10-15T13:12:03.136Z,81.61
2023-10-15T13:14:30.149Z,83.18
2023-10-15T13:16:58.615Z,82.19
2023-10-15T13:19:25.878Z,81.03
2023-10-15T13:21:52.895Z,80.59
2023-10-15T13:24:19.772Z,80.14
2023-10-15T13:26:49.419Z,81.00
2023-10-15T13:29:16.346Z,80.72
2023-10-15T13:31:43.660Z,80.78
2023-10-15T13:34:10.979Z,81.75
2023-10-15T13:36:38.169Z,82.43
2023-10-15T13:39:08.271Z,82.79
2023-10-15T13:41:37.287Z,82.08
2023-10-15T13:44:04.298Z,81.64
2023-10-15T13:46:31.137Z,81.70
2023-10-15T13:48:58.043Z,81.64
2023-10-15T13:51:26.427Z,82.80
2023-10-15T13:53:53.451Z,81.88
2023-10-15T13:56:21.498Z,82.56
2023-10-15T13:58:48.581Z,82.09
2023-10-15T14:01:17.118Z,82.52
2023-10-15T14:03:45.552Z,82.61
2023-10-15T14:06:13.330Z,83.16
2023-10-15T14:08:40.324Z,83.49
2023-10-15T14:11:08.620Z,83.10
2023-10-15T14:13:35.665Z,83.50
2023-10-15T14:16:06.147Z,82.87
2023-10-15T14:18:33.182Z,82.64
2023-10-15T14:21:00.149Z,83.77
2023-10-15T14:23:29.349Z,83.58
2023-10-15T14:25:56.265Z,83.71
2023-10-15T14:28:23.298Z,83.07
2023-10-15T14:30:51.694Z,82.67
2023-10-15T14:33:18.665Z,83.06
2023-10-15T14:35:45.662Z,82.56
2023-10-15T14:38:12.498Z,82.55
2023-10-15T14:40:40.608Z,83.23
2023-10-15T14:43:08.657Z,82.96
2023-10-15T14:45:38.253Z,83.35
2023-10-15T14:48:09.578Z,83.12
2023-10-15T14:50:38.155Z,82.88
2023-10-15T14:53:05.841Z,83.86
2023-10-15T14:55:45.407Z,83.51
2023-10-15T14:58:13.716Z,83.53
2023-10-15T15:00:41.396Z,84.07
2023-10-15T15:03:08.199Z,82.78
2023-10-15T15:05:36.514Z,82.94
2023-10-15T15:08:06.217Z,83.61
2023-10-15T15:10:36.347Z,83.27
2023-10-15T15:13:04.015Z,83.21
2023-10-15T15:15:31.009Z,83.79
2023-10-15T15:17:58.569Z,83.10
2023-10-15T15:20:25.810Z,83.04
2023-10-15T15:22:52.775Z,83.47
2023-10-15T15:25:22.058Z,83.59
2023-10-15T15:27:49.306Z,84.25
2023-10-15T15:30:16.772Z,82.67
2023-10-15T15:32:47.453Z,79.06
2023-10-15T15:35:14.823Z,78.09
2023-10-15T15:37:44.323Z,78.06
2023-10-15T15:40:13.038Z,77.35
2023-10-15T15:42:39.968Z,77.62
2023-10-15T15:45:09.644Z,77.57
2023-10-15T15:50:04.828Z,75.69
2023-10-15T15:52:31.776Z,77.55
2023-10-15T15:54:58.770Z,77.63
2023-10-15T15:57:25.526Z,78.07
2023-10-15T15:59:53.500Z,78.67
2023-10-15T16:02:20.520Z,78.27
2023-10-15T16:04:47.395Z,79.32
2023-10-15T16:07:14.515Z,79.20
2023-10-15T16:09:42.918Z,79.64
2023-10-15T16:12:10.617Z,79.69
2023-10-15T16:14:37.477Z,80.28
2023-10-15T16:17:04.898Z,80.36
2023-10-15T16:19:32.706Z,80.96
2023-10-15T16:21:59.753Z,80.55
2023-10-15T16:24:26.945Z,80.94
2023-10-15T16:26:55.109Z,80.90
2023-10-15T16:29:22.211Z,81.37
2023-10-15T16:31:49.552Z,80.14
2023-10-15T16:34:16.568Z,79.99
2023-10-15T16:36:43.698Z,80.80
2023-10-15T16:39:10.769Z,80.88
2023-10-15T16:41:37.732Z,81.00
2023-10-15T16:44:04.870Z,79.78
2023-10-15T16:46:32.136Z,80.04
2023-10-15T16:48:59.236Z,80.21
2023-10-15T16:51:26.996Z,80.16
2023-10-15T16:53:54.769Z,80.38
2023-10-15T16:56:22.135Z,80.25
2023-10-15T16:58:49.347Z,80.01
2023-10-15T17:01:18.632Z,80.72
2023-10-15T17:03:45.891Z,80.93
2023-10-15T17:06:13.453Z,81.04
2023-10-15T17:08:41.155Z,80.08
2023-10-15T17:11:08.291Z,80.29
2023-10-15T17:13:35.392Z,80.19
2023-10-15T17:16:02.235Z,80.67
2023-10-15T17:18:29.332Z,80.75
2023-10-15T17:20:57.195Z,81.54
2023-10-15T17:23:24.256Z,80.36
2023-10-15T17:25:51.307Z,82.19
2023-10-15T17:28:18.655Z,81.12
2023-10-15T17:30:46.453Z,80.89
2023-10-15T17:33:13.644Z,81.60
2023-10-15T17:35:40.891Z,81.44
2023-10-15T17:38:08.157Z,81.03
2023-10-15T17:40:35.127Z,80.79
2023-10-15T17:43:01.977Z,81.18
2023-10-15T17:45:29.626Z,81.95
2023-10-15T17:47:59.819Z,80.83
2023-10-15T17:50:26.938Z,81.37
2023-10-15T17:52:54.754Z,81.35
2023-10-15T17:55:22.094Z,81.61
2023-10-15T17:57:49.094Z,82.09
2023-10-15T18:00:16.463Z,82.34
2023-10-15T18:02:44.974Z,81.82
2023-10-15T18:05:12.004Z,81.79
2023-10-15T18:07:40.020Z,82.69
2023-10-15T18:10:07.476Z,83.36
2023-10-15T18:12:34.410Z,83.08
2023-10-15T18:15:01.515Z,82.63
2023-10-15T18:17:29.245Z,83.11
2023-10-15T18:19:56.203Z,83.76
2023-10-15T18:22:22.944Z,83.24
2023-10-15T18:24:49.973Z,82.89
2023-10-15T18:27:16.866Z,82.42
2023-10-15T18:29:44.079Z,82.76
2023-10-15T18:32:12.117Z,82.82
2023-10-15T18:34:40.158Z,81.94
2023-10-15T18:37:07.234Z,81.62
2023-10-15T18:39:34.685Z,80.95
2023-10-15T18:42:02.014Z,82.49
2023-10-15T18:44:29.854Z,81.30
2023-10-15T18:46:57.024Z,81.08
2023-10-15T18:49:23.987Z,81.66
2023-10-15T18:51:51.224Z,81.22
2023-10-15T18:54:18.181Z,81.61
2023-10-15T18:56:44.959Z,81.22
2023-10-15T18:59:12.024Z,80.86
2023-10-15T19:01:39.131Z,80.96
2023-10-15T19:04:06.392Z,80.88
2023-10-15T19:06:34.149Z,80.86
2023-10-15T19:09:01.145Z,80.45
2023-10-15T19:11:31.124Z,80.74
2023-10-15T19:13:58.221Z,81.07
2023-10-15T19:16:25.241Z,81.24
2023-10-15T19:18:52.460Z,80.72
2023-10-15T19:21:19.717Z,81.06
2023-10-15T19:23:46.536Z,81.24
2023-10-15T19:26:13.469Z,81.79
2023-10-15T19:28:40.399Z,81.43
2023-10-15T19:31:09.142Z,81.60
2023-10-15T19:33:36.400Z,80.93
2023-10-15T19:36:03.986Z,81.65
2023-10-15T19:38:33.935Z,81.80
2023-10-15T19:41:00.698Z,82.39
2023-10-15T19:43:32.110Z,82.81
2023-10-15T19:46:00.139Z,82.18
2023-10-15T19:48:27.841Z,83.25
2023-10-15T19:50:54.856Z,82.42
2023-10-15T19:53:28.181Z,82.44
2023-10-15T19:55:55.502Z,83.21
2023-10-15T19:58:23.847Z,82.40
2023-10-15T20:00:51.291Z,83.02
2023-10-15T20:03:18.550Z,82.16
2023-10-15T20:05:46.956Z,82.26
2023-10-15T20:08:16.508Z,83.07
2023-10-15T20:10:46.583Z,82.26
2023-10-15T20:13:15.713Z,82.76
2023-10-15T20:15:44.066Z,83.31
2023-10-15T20:18:11.326Z,83.10
2023-10-15T20:20:38.323Z,82.87
2023-10-15T20:23:05.837Z,82.56
2023-10-15T20:25:33.573Z,82.72
2023-10-15T20:28:03.090Z,82.06
2023-10-15T20:30:33.467Z,82.18
2023-10-15T20:33:00.598Z,81.98
2023-10-15T20:35:28.577Z,82.69
2023-10-15T20:37:56.292Z,83.21
2023-10-15T20:40:27.298Z,84.06
2023-10-15T20:42:54.961Z,83.00
2023-10-15T20:45:25.508Z,84.29
2023-10-15T20:47:52.879Z,84.13
2023-10-15T20:50:20.546Z,84.27
2023-10-15T20:52:49.227Z,83.21
2023-10-15T20:55:17.090Z,83.63
2023-10-15T20:57:44.497Z,83.47
2023-10-15T21:00:14.144Z,83.64
2023-10-15T21:02:43.930Z,83.02
2023-10-15T21:05:12.229Z,83.37
2023-10-15T21:07:44.749Z,83.02
2023-10-15T21:10:13.260Z,82.59
2023-10-15T21:12:45.336Z,83.47
2023-10-15T21:15:13.900Z,84.17
2023-10-15T21:17:42.060Z,84.24
2023-10-15T21:20:12.020Z,84.09
2023-10-15T21:22:41.195Z,84.28
2023-10-15T21:25:19.177Z,83.89
2023-10-15T21:27:46.111Z,84.81
2023-10-15T21:30:13.952Z,84.04
2023-10-15T21:32:41.460Z,84.98
2023-10-15T21:35:09.452Z,84.63
2023-10-15T21:37:41.281Z,83.72
2023-10-15T21:40:16.520Z,84.19
2023-10-15T21:42:44.440Z,83.63
2023-10-15T21:45:13.076Z,83.75
2023-10-15T21:47:40.972Z,84.31
2023-10-15T21:50:08.381Z,84.43
2023-10-15T21:52:36.592Z,83.89
2023-10-15T21:55:05.992Z,84.24
2023-10-15T21:57:37.759Z,83.74
2023-10-15T22:00:06.483Z,83.69
2023-10-15T22:02:33.786Z,84.63
2023-10-15T22:05:04.431Z,84.05
2023-10-15T22:07:33.122Z,84.17
2023-10-15T22:10:00.238Z,84.14
2023-10-15T22:12:27.916Z,84.40
2023-10-15T22:14:54.855Z,84.95
2023-10-15T22:17:22.198Z,84.53
2023-10-15T22:19:49.038Z,84.92
2023-10-15T22:22:18.959Z,84.16
2023-10-15T22:24:45.899Z,84.49
2023-10-15T22:27:15.332Z,85.09
2023-10-15T22:29:45.382Z,85.61
2023-10-15T22:32:12.645Z,84.85
2023-10-15T22:34:40.167Z,85.36
2023-10-15T22:37:07.567Z,84.98
2023-10-15T22:39:38.098Z,85.63
2023-10-15T22:42:12.600Z,85.93
2023-10-15T22:44:46.591Z,86.31
2023-10-15T22:47:17.135Z,85.54
2023-10-15T22:49:44.122Z,86.01
2023-10-15T22:52:11.881Z,85.80
2023-10-15T22:54:39.021Z,85.05
2023-10-15T22:57:09.334Z,86.65
2023-10-15T22:59:38.528Z,86.58
2023-10-15T23:02:05.396Z,86.00
2023-10-15T23:04:32.245Z,86.48
2023-10-15T23:06:59.032Z,85.10
2023-10-15T23:09:26.620Z,86.19
2023-10-15T23:11:53.569Z,86.12
2023-10-15T23:14:22.291Z,86.14
2023-10-15T23:16:50.111Z,86.52
2023-10-15T23:19:23.601Z,86.76
2023-10-15T23:21:56.581Z,86.10
2023-10-15T23:24:27.034Z,87.22
2023-10-15T23:26:54.179Z,86.75
2023-10-15T23:29:25.710Z,86.81
2023-10-15T23:31:52.743Z,86.81
2023-10-15T23:34:19.886Z,87.49
2023-10-15T23:36:46.813Z,87.14
2023-10-15T23:39:21.001Z,87.01
2023-10-15T23:41:50.966Z,87.41
2023-10-15T23:44:22.992Z,87.33
2023-10-15T23:46:49.958Z,87.38
2023-10-15T23:49:26.809Z,87.63
2023-10-15T23:51:53.675Z,86.90
2023-10-15T23:54:28.242Z,86.83
2023-10-15T23:56:55.273Z,87.28
2023-10-15T23:59:23.007Z,87.57
